Bango, Nevada Weather observations

Data are for 10 minute period ending at time listed.
 Day   Time    Ave.   Ave.  Ave.  Vector   Max.   Stn.    Total    Solar   Ave.  
  of    of     Air    Rel.  Wind   Wind    Wind   Baro.  Precip.   Rad.    Soil  
Year   Day     Temp.  Hum.  Speed  Dir.    Gust   Pres.                    Temp. 
2014   (PST)    F      %     mph   deg.    mph     mb.     in.     W/m2     F    
--------------------------------------------------------------------------------- 
 329    4:30   26.8    65    3.2   219      5.1   888.0    0.00       0     5.5  
 329    4:40   27.2    64    3.6   194      5.1   888.0    0.00       0     5.5  
 329    4:50   29.4    61    1.2   169      2.4   888.2    0.00       0     5.5  
 329    5:00   28.5    62    2.9   240      4.2   888.3    0.00       0     5.4  
 329    5:10   27.3    65    2.5   271      4.2   888.3    0.00       0     5.4  
 329    5:20   27.0    64    5.7   259      7.8   888.3    0.00       0     5.3  
 329    5:30   27.5    64    6.6   247      8.7   888.4    0.00       0     5.3  
 329    5:40   28.5    62    5.9   233      7.8   888.4    0.00       0     5.2  
 329    5:50   27.6    62    5.5   217      8.7   888.4    0.00       0     5.2  
 329    6:00   28.5    60    7.0   228      7.8   888.4    0.00       0     5.2  
 329    6:10   27.3    62    6.4   239      7.8   888.5    0.00       0     5.1  
 329    6:20   27.4    63    8.4   246     11.4   888.6    0.00       0     5.1  
 329    6:30   30.4    57    7.5   246     10.5   888.7    0.00       0     5.0  
 329    6:40   31.4    54    4.1   242      6.0   888.7    0.00       1     5.0  
 329    6:50   30.9    55    3.0   214      6.0   888.8    0.00       3     5.0  
 329    7:00   31.6    54    7.6   237     10.5   888.8    0.00       9     4.9  
 329    7:10   31.8    54    8.8   247     11.4   888.8    0.00      25     4.9  
 329    7:20   32.5    53    9.6   244     11.4   888.7    0.00      48     4.9  
 329    7:30   33.6    51   10.2   222     12.3   888.4    0.00      77     4.8  
 329    7:40   34.6    49   11.1   214     14.9   888.5    0.00     110     4.8  
 329    7:50   35.5    47    8.0   223     10.5   888.7    0.00     142     4.8  
 329    8:00   35.9    47    7.6   210     10.5   888.9    0.00     169     4.7  
 329    8:10   37.0    45    9.6   217     13.2   888.8    0.00     196     4.7  
 329    8:20   38.5    41   11.2   221     14.9   888.7    0.00     224     4.7  
 329    8:30   39.3    38   12.4   221     14.9   888.7    0.00     251     4.6  
 329    8:40   40.0    37   10.3   203     13.2   888.7    0.00     277     4.6  
 329    8:50   40.1    38    8.5   205     10.5   888.7    0.00     303     4.6  
 329    9:00   41.1    36    8.5   219     11.4   888.8    0.00     328     4.6  
 329    9:10   42.1    35    8.5   210     12.3   888.8    0.00     351     4.6  
 329    9:20   43.3    33    8.0   209     11.4   888.8    0.00     374     4.6  
 329    9:30   44.4    32    8.9   219     11.4   888.8    0.00     395     4.6  
 329    9:40   45.4    31    8.5   223     11.4   888.8    0.00     416     4.6  
 329    9:50   46.4    30    8.2   231     10.5   888.8    0.00     437     4.6  
 329   10:00   47.3    28    8.8   220     11.4   888.7    0.00     456     4.6  
 329   10:10   48.0    27    8.0   230     10.5   888.7    0.00     473     4.6  
 329   10:20   48.1    28    8.2   222     11.4   888.6    0.00     487     4.6  
 329   10:30   48.5    27    7.5   201     10.5   888.4    0.00     501     4.6  
 329   10:40   49.1    27    6.8   198      9.6   888.2    0.00     513     4.7  
 329   10:50   49.9    27    7.2   181     10.5   888.1    0.00     524     4.7  
 329   11:00   50.3    26    7.4   174     10.5   888.0    0.00     533     4.7  
 329   11:10   50.6    26    5.7   172      8.7   887.9    0.00     540     4.8  
 329   11:20   50.9    26    6.3   178      8.7   887.8    0.00     546     4.8  
 329   11:30   51.5    26    5.6   160      8.7   887.6    0.00     549     4.9  
 329   11:40   51.9    26    7.1   175      9.6   887.3    0.00     531     5.0  
 329   11:50   52.4    25    6.6   164      9.6   887.1    0.00     552     5.0  
 329   12:00   53.3    25    5.2   175      7.8   886.9    0.00     550     5.1  
 329   12:10   54.4    24    5.0   181      7.8   886.7    0.00     548     5.2  
 329   12:20   55.2    24    4.6   186      6.9   886.5    0.00     544     5.3  
 329   12:30   56.1    23    4.0   184      6.9   886.4    0.00     538     5.4  
 329   12:40   56.8    22    4.7   159      6.9   886.3    0.00     532     5.5  
 329   12:50   57.9    22    4.0   204      6.9   886.1    0.00     526     5.6  
 329   13:00   58.1    22    3.7   221      6.0   886.1    0.00     516     5.8  
 329   13:10   58.9    22    3.9   179      7.8   886.0    0.00     501     5.9  
 329   13:20   58.5    23    5.4   177      7.8   885.8    0.00     482     6.0  
 329   13:30   58.0    24    6.1   154      9.6   885.7    0.00     463     6.1  
 329   13:40   58.5    23    5.9   176      9.6   885.6    0.00     446     6.3  
 329   13:50   58.6    22    6.6   115      9.6   885.7    0.00     429     6.4  
 329   14:00   59.1    22    4.5   102      6.9   885.7    0.00     409     6.6  
 329   14:10   59.4    22    4.4   109      6.9   885.6    0.00     388     6.7  
 329   14:20   59.5    22    4.0   112      6.9   885.6    0.00     366     6.8  
 329   14:30   59.6    22    3.8   110      6.0   885.6    0.00     342     7.0  
 329   14:40   60.4    21    4.2    94      6.0   885.6    0.00     318     7.1  
 329   14:50   59.9    21    4.4   104      6.9   885.6    0.00     292     7.3  
 329   15:00   59.7    21    4.6    92      6.9   885.7    0.00     265     7.4  
 329   15:10   59.9    21    5.0    97      6.9   885.6    0.00     238     7.6  
 329   15:20   59.9    21    4.9    90      6.9   885.6    0.00     211     7.7  
 329   15:30   59.3    22    4.9   106      7.8   885.6    0.00     184     7.8  
 329   15:40   59.6    21    4.7    94      6.0   885.6    0.00     157     8.0  
 329   15:50   59.4    21    3.5    84      4.2   885.6    0.00     124     8.1  
 329   16:00   59.0    22    3.6    77      5.1   885.6    0.00      89     8.2  
 329   16:10   57.9    23    2.9    70      3.3   885.5    0.00      57     8.4  
 329   16:20   57.2    24    2.5    60      3.3   885.4    0.00      32     8.5  
 329   16:30   56.4    24    2.7    66      4.2   885.4    0.00      10     8.6  
 329   16:40   54.8    26    3.0    40      4.2   885.4    0.00       5     8.7  
 329   16:50   52.5    28    2.9   352      4.2   885.4    0.00       2     8.8  
 329   17:00   50.0    30    3.4   326      4.2   885.4    0.00       1     8.9  
 329   17:10   48.9    32    3.8   335      4.2   885.5    0.00       0     9.0  
 329   17:20   47.1    33    4.2   338      5.1   885.7    0.00       0     9.0  
 329   17:30   46.9    34    4.4   332      5.1   885.7    0.00       0     9.1  
 329   17:40   46.0    34    3.8   313      4.2   885.7    0.00       0     9.1  
 329   17:50   44.0    36    3.0   322      4.2   885.8    0.00       0     9.2  
 329   18:00   42.7    38    3.1   353      4.2   885.8    0.00       0     9.2  
 329   18:10   42.6    39    4.0   359      5.1   885.8    0.00       0     9.2  
 329   18:20   42.8    38    4.7   346      5.1   885.8    0.00       0     9.2  
 329   18:30   42.6    39    3.4   334      5.1   885.9    0.00       0     9.2  
 329   18:40   41.8    41    2.2   171      3.3   886.0    0.00       0     9.2  
 329   18:50   42.2    41    2.4   181      3.3   886.2    0.00       0     9.2  
 329   19:00   40.6    43    3.1   212      5.1   886.2    0.00       0     9.2  
 329   19:10   40.5    43    3.6   240      4.2   886.2    0.00       0     9.2  
 329   19:20   39.3    44    3.0   235      4.2   886.2    0.00       0     9.1  
 329   19:30   39.6    43    1.1   198      2.4   886.4    0.00       0     9.1  
 329   19:40   39.9    43    0.9   236      2.4   886.4    0.00       0     9.1  
 329   19:50   39.5    44    0.6   311      0.6   886.5    0.00       0     9.0  
 329   20:00   38.6    45    0.6   274      0.6   886.6    0.00       0     9.0  
 329   20:10   38.4    46    0.9     4      2.4   886.6    0.00       0     8.9  
 329   20:20   38.2    47    1.6    32      3.3   886.7    0.00       0     8.9  
 329   20:30   38.0    47    1.9    12      2.4   886.8    0.00       0     8.9  
 329   20:40   37.7    48    1.5    23      2.4   886.9    0.00       0     8.8  
 329   20:50   38.1    48    1.6     9      3.3   886.9    0.00       0     8.8  
 329   21:00   36.8    50    1.0   319      3.3   886.9    0.00       0     8.7  
 329   21:10   35.7    51    2.3   278      3.3   886.9    0.00       0     8.7  
 329   21:20   35.7    51    0.7   264      1.5   886.9    0.00       0     8.6  
 329   21:30   35.9    51    1.1   298      2.4   886.9    0.00       0     8.6  
 329   21:40   35.2    53    1.6   249      3.3   886.8    0.00       0     8.5  
 329   21:50   35.1    53    2.1   243      3.3   886.7    0.00       0     8.5  
 329   22:00   34.8    53    1.4   299      2.4   886.8    0.00       0     8.4  
 329   22:10   34.9    54    0.6   185      1.5   886.7    0.00       0     8.3  
 329   22:20   35.3    53    4.4   216      6.0   886.7    0.00       0     8.3  
 329   22:30   34.4    55    5.9   246      7.8   886.7    0.00       0     8.2  
 329   22:40   34.6    54    6.7   249      7.8   886.7    0.00       0     8.2  
 329   22:50   34.9    55    6.9   233      7.8   886.6    0.00       0     8.1  
 329   23:00   34.9    55    4.4   211      6.9   886.6    0.00       0     8.1  
 329   23:10   35.3    56    4.1   204      5.1   886.6    0.00       0     8.0  
 329   23:20   33.8    59    4.2   209      6.0   886.6    0.00       0     7.9  
 329   23:30   32.9    60    5.7   232      6.9   886.6    0.00       0     7.9  
 329   23:40   34.6    58    4.7   228      6.0   886.5    0.00       0     7.8  
 329   23:50   34.5    56    5.6   216      7.8   886.3    0.00       0     7.8  
 330    0:00   32.5    60    7.5   226      8.7   886.3    0.00       0     7.7  
 330    0:10   34.1    57    5.9   237      7.8   886.2    0.00       0     7.7  
 330    0:20   37.5    50    4.8   236      6.0   886.2    0.00       0     7.6  
 330    0:30   37.5    48    5.4   214      6.9   886.1    0.00       0     7.6  
 330    0:40   35.9    52    4.8   194      6.9   886.0    0.00       0     7.5  
 330    0:50   37.5    50    4.5   218      6.0   885.9    0.00       0     7.5  
 330    1:00   35.9    51    5.3   237      6.9   885.9    0.00       0     7.4  
 330    1:10   36.4    51    5.6   217      6.9   885.8    0.00       0     7.4  
 330    1:20   35.6    53    6.3   189      8.7   885.7    0.00       0     7.3  
 330    1:30   34.7    56    5.2   220      6.0   885.8    0.00       0     7.3  
 330    1:40   38.8    48    4.5   213      6.0   885.9    0.00       0     7.2  
 330    1:50   37.5    48    5.6   202      7.8   885.9    0.00       0     7.2  
 330    2:00   36.6    51    4.6   204      6.0   885.8    0.00       0     7.1  
 330    2:10   36.0    52    4.1   194      5.1   885.7    0.00       0     7.1  
 330    2:20   36.3    54    1.9   163      3.3   885.7    0.00       0     7.0  
 330    2:30   35.2    57    2.0   242      3.3   885.8    0.00       0     7.0  
 330    2:40   34.4    57    1.6   266      4.2   885.9    0.00       0     6.9  
 330    2:50   33.9    57    2.5    13      4.2   885.8    0.00       0     6.9  
 330    3:00   35.8    56    3.2    36      4.2   885.8    0.00       0     6.8  
 330    3:10   34.9    57    4.1    13      6.0   885.9    0.00       0     6.8  
 330    3:20   34.2    59    4.2    21      5.1   885.9    0.00       0     6.7  
 330    3:30   33.6    59    3.8     9      5.1   885.8    0.00       0     6.7  
 330    3:40   33.6    59    2.7   324      3.3   885.7    0.00       0     6.7  
 330    3:50   34.6    57    2.8   287      4.2   885.7    0.00       0     6.6  
 330    4:00   35.2    56    1.9   261      4.2   885.6    0.00       0     6.6  
 330    4:10   34.7    56    4.0   263      5.1   885.6    0.00       0     6.5  
 330    4:20   36.3    53    2.9   272      4.2   885.6    0.00       0     6.5  

Return to Garden Spring, Nevada graphs page.


Western Regional Climate Center,wrcc@dri.edu